Main page
METAR-TAF:

METAR-TAF

Airports :

Dublin, Ireland

Dublin Airport

latitude: 53-26N, longitude: 006-15W, elevation: 68 m

Current weather observation

The report was made 18 minutes ago, at 02:30 UTC
Wind 6 kt from the West/Northwest
Temperature 13°C
Humidity 94%
Pressure 1017 hPa
Visibility 10 km or more
Few clouds at a height of 2500 ft

METAR: EIDW 240230Z 29006KT 9999 FEW025 13/12 Q1017 NOSIG

Time: 03:48 (02:48 UTC)

Forecast

The report was made 3 hours and 48 minutes ago, at 23:00 UTC
Forecast valid from 24 at 00 UTC to 24 at 24 UTC
Wind 8 kt from the Northwest
Visibility 10 km or more
Scattered clouds at a height of 4000 ft
Probability 40% :
Temporary
from 24 at 04 UTC to 24 at 07 UTC
Visibility: 5000 m
Broken clouds at a height of 500 ft
mist

TAF: EIDW 232300Z 2400/2424 32008KT 9999 SCT040 PROB40 TEMPO 2404/2407 5000 BR BKN005

Weather observations and forecasts of more than 4000 airports (METAR and TAF reports).

The available stations are represented by yellow and red dots on the map.

Hover mouse over dot to see the name of the station.

Then click to see weather observations and forecasts.

To change the map : click on the green buttons with a black cross to zoom in, on the green button with a dash to zoom out, or on the green arrows for adjacent maps.


METAR-TAF: